createdAt,value
2017-11-15T00:02:03.972Z,101710.44
2017-11-15T00:04:41.591Z,101704.78
2017-11-15T00:07:13.316Z,101715.69
2017-11-15T00:09:44.690Z,101712.66
2017-11-15T00:12:16.757Z,101714.81
2017-11-15T00:14:49.644Z,101709.19
2017-11-15T00:17:23.389Z,101708.36
2017-11-15T00:19:54.814Z,101706.69
2017-11-15T00:22:35.397Z,101701.89
2017-11-15T00:25:06.963Z,101713.20
2017-11-15T00:27:38.559Z,101724.05
2017-11-15T00:30:16.226Z,101714.58
2017-11-15T00:32:49.473Z,101716.73
2017-11-15T00:35:22.219Z,101714.20
2017-11-15T00:37:53.892Z,101719.44
2017-11-15T00:40:25.995Z,101715.55
2017-11-15T00:42:57.338Z,101713.39
2017-11-15T00:45:29.591Z,101715.14
2017-11-15T00:48:02.518Z,101716.05
2017-11-15T00:50:36.170Z,101712.98
2017-11-15T00:53:08.191Z,101718.61
2017-11-15T00:55:39.602Z,101719.49
2017-11-15T00:58:12.670Z,101717.80
2017-11-15T01:00:46.482Z,101722.62
2017-11-15T01:03:18.533Z,101718.75
2017-11-15T01:05:50.428Z,101719.20
2017-11-15T01:08:23.607Z,101714.84
2017-11-15T01:10:55.597Z,101727.88
2017-11-15T01:13:29.733Z,101737.86
2017-11-15T01:16:03.393Z,101738.30
2017-11-15T01:18:36.209Z,101742.20
2017-11-15T01:21:08.445Z,101740.92
2017-11-15T01:23:40.285Z,101737.47
2017-11-15T01:26:12.168Z,101738.80
2017-11-15T01:28:43.644Z,101733.62
2017-11-15T01:31:14.962Z,101738.42
2017-11-15T01:33:46.714Z,101741.87
2017-11-15T01:36:18.215Z,101738.86
2017-11-15T01:38:49.692Z,101731.92
2017-11-15T01:41:21.673Z,101727.58
2017-11-15T01:43:53.621Z,101721.96
2017-11-15T01:46:25.578Z,101713.70
2017-11-15T01:48:58.732Z,101710.23
2017-11-15T01:51:35.036Z,101707.22
2017-11-15T01:54:07.463Z,101705.06
2017-11-15T01:56:39.413Z,101711.16
2017-11-15T01:59:12.345Z,101709.86
2017-11-15T02:01:44.022Z,101708.56
2017-11-15T02:04:15.854Z,101710.73
2017-11-15T02:06:47.161Z,101710.31
2017-11-15T02:09:19.746Z,101709.89
2017-11-15T02:11:53.421Z,101714.20
2017-11-15T02:14:27.613Z,101718.08
2017-11-15T02:17:01.052Z,101715.48
2017-11-15T02:19:35.219Z,101718.95
2017-11-15T02:22:08.326Z,101721.56
2017-11-15T02:24:39.700Z,101720.73
2017-11-15T02:27:11.495Z,101728.09
2017-11-15T02:29:42.797Z,101733.32
2017-11-15T02:32:14.172Z,101730.74
2017-11-15T02:34:46.529Z,101729.44
2017-11-15T02:37:17.849Z,101731.61
2017-11-15T02:39:49.388Z,101731.19
2017-11-15T02:42:21.037Z,101731.16
2017-11-15T02:44:52.421Z,101722.08
2017-11-15T02:47:24.338Z,101724.66
2017-11-15T02:49:56.077Z,101719.89
2017-11-15T02:52:28.545Z,101719.03
2017-11-15T02:54:59.823Z,101715.15
2017-11-15T02:57:33.838Z,101710.39
2017-11-15T03:00:07.062Z,101704.31
2017-11-15T03:02:38.638Z,101706.05
2017-11-15T03:05:09.917Z,101699.55
2017-11-15T03:07:41.525Z,101700.45
2017-11-15T03:10:13.148Z,101696.12
2017-11-15T03:12:44.577Z,101692.65
2017-11-15T03:15:16.166Z,101693.55
2017-11-15T03:17:48.210Z,101690.52
2017-11-15T03:20:20.035Z,101682.69
2017-11-15T03:22:51.614Z,101684.87
2017-11-15T03:25:23.452Z,101685.74
2017-11-15T03:27:55.957Z,101685.31
2017-11-15T03:30:29.026Z,101684.05
2017-11-15T03:33:00.394Z,101688.80
2017-11-15T03:35:34.206Z,101683.21
2017-11-15T03:38:07.225Z,101677.59
2017-11-15T03:40:38.535Z,101682.34
2017-11-15T03:43:11.145Z,101683.23
2017-11-15T03:45:42.468Z,101687.98
2017-11-15T03:48:14.038Z,101687.13
2017-11-15T03:50:46.912Z,101683.66
2017-11-15T03:53:18.240Z,101686.26
2017-11-15T03:55:50.054Z,101678.50
2017-11-15T03:58:21.616Z,101679.81
2017-11-15T04:00:53.141Z,101679.38
2017-11-15T04:03:24.818Z,101681.54
2017-11-15T04:05:56.376Z,101684.11
2017-11-15T04:08:28.838Z,101688.44
2017-11-15T04:11:00.452Z,101687.58
2017-11-15T04:13:33.608Z,101685.87
2017-11-15T04:16:07.417Z,101684.13
2017-11-15T04:18:39.545Z,101679.81
2017-11-15T04:21:11.048Z,101687.60
2017-11-15T04:23:42.764Z,101681.52
2017-11-15T04:26:14.128Z,101680.66
2017-11-15T04:28:45.426Z,101677.21
2017-11-15T04:31:17.448Z,101683.25
2017-11-15T04:33:48.754Z,101677.64
2017-11-15T04:36:20.034Z,101671.58
2017-11-15T04:38:51.706Z,101677.21
2017-11-15T04:41:25.099Z,101675.03
2017-11-15T04:43:58.173Z,101680.68
2017-11-15T04:46:31.001Z,101693.21
2017-11-15T04:49:04.076Z,101688.88
2017-11-15T04:51:37.422Z,101690.18
2017-11-15T04:54:09.111Z,101692.78
2017-11-15T04:56:40.393Z,101697.09
2017-11-15T04:59:12.073Z,101706.19
2017-11-15T05:01:43.352Z,101697.98
2017-11-15T05:04:15.192Z,101704.45
2017-11-15T05:06:46.772Z,101709.20
2017-11-15T05:09:18.241Z,101721.75
2017-11-15T05:11:49.968Z,101715.68
2017-11-15T05:14:21.716Z,101720.44
2017-11-15T05:16:53.052Z,101714.39
2017-11-15T05:19:24.685Z,101714.81
2017-11-15T05:21:56.783Z,101712.23
2017-11-15T05:24:30.266Z,101716.11
2017-11-15T05:27:07.800Z,101710.48
2017-11-15T05:29:39.717Z,101707.03
2017-11-15T05:32:11.586Z,101704.02
2017-11-15T05:34:43.132Z,101714.39
2017-11-15T05:37:14.490Z,101716.13
2017-11-15T05:39:47.372Z,101722.63
2017-11-15T05:42:19.728Z,101727.38
2017-11-15T05:44:54.245Z,101728.23
2017-11-15T05:47:25.744Z,101732.98
2017-11-15T05:49:58.995Z,101728.23
2017-11-15T05:52:34.593Z,101722.63
2017-11-15T05:55:07.687Z,101720.45
2017-11-15T05:57:43.086Z,101732.13
2017-11-15T06:00:18.866Z,101729.97
2017-11-15T06:02:50.316Z,101732.56
2017-11-15T06:05:22.869Z,101739.47
2017-11-15T06:07:56.893Z,101737.31
2017-11-15T06:10:32.039Z,101738.59
2017-11-15T06:13:07.154Z,101739.03
2017-11-15T06:15:38.954Z,101739.45
2017-11-15T06:18:10.883Z,101747.70
2017-11-15T06:20:42.962Z,101744.23
2017-11-15T06:23:15.442Z,101748.98
2017-11-15T06:25:46.978Z,101748.98
2017-11-15T06:28:19.468Z,101744.66
2017-11-15T06:30:50.827Z,101756.77
2017-11-15T06:33:22.349Z,101751.59
2017-11-15T06:35:53.981Z,101755.48
2017-11-15T06:38:25.330Z,101762.81
2017-11-15T06:40:56.719Z,101764.97
2017-11-15T06:43:28.420Z,101768.42
2017-11-15T06:45:59.777Z,101769.30
2017-11-15T06:48:34.098Z,101771.89
2017-11-15T06:51:07.821Z,101780.56
2017-11-15T06:53:39.634Z,101782.70
2017-11-15T06:56:11.162Z,101778.39
2017-11-15T06:58:45.907Z,101768.86
2017-11-15T07:01:17.303Z,101766.71
2017-11-15T07:03:49.528Z,101768.86
2017-11-15T07:06:20.877Z,101769.73
2017-11-15T07:08:52.214Z,101764.53
2017-11-15T07:11:25.159Z,101764.06
2017-11-15T07:13:56.645Z,101766.23
2017-11-15T07:16:28.458Z,101772.30
2017-11-15T07:19:00.768Z,101770.13
2017-11-15T07:21:34.765Z,101772.25
2017-11-15T07:24:06.711Z,101776.57
2017-11-15T07:26:38.034Z,101778.27
2017-11-15T07:29:18.286Z,101773.02
2017-11-15T07:31:49.721Z,101781.25
2017-11-15T07:34:23.154Z,101786.41
2017-11-15T07:36:54.453Z,101782.94
2017-11-15T07:39:25.745Z,101783.39
2017-11-15T07:41:57.333Z,101790.36
2017-11-15T07:44:28.656Z,101790.75
2017-11-15T07:47:00.054Z,101792.00
2017-11-15T07:49:36.239Z,101791.86
2017-11-15T07:52:15.762Z,101796.50
2017-11-15T07:57:36.670Z,101797.19
2017-11-15T08:00:15.091Z,101803.63
2017-11-15T08:02:46.617Z,101800.62
2017-11-15T08:05:24.702Z,101797.30
2017-11-15T08:07:56.044Z,101794.25
2017-11-15T08:10:29.161Z,101794.59
2017-11-15T08:13:03.912Z,101793.19
2017-11-15T08:15:40.122Z,101801.75
2017-11-15T08:18:11.746Z,101796.63
2017-11-15T08:20:44.174Z,101795.36
2017-11-15T08:23:17.993Z,101800.09
2017-11-15T08:25:49.303Z,101800.09
2017-11-15T08:28:22.791Z,101805.81
2017-11-15T08:30:59.282Z,101813.17
2017-11-15T08:33:30.602Z,101805.25
2017-11-15T08:36:04.209Z,101799.02
2017-11-15T08:38:36.169Z,101796.30
2017-11-15T08:41:07.518Z,101799.09
2017-11-15T08:43:40.605Z,101801.20
2017-11-15T08:46:12.195Z,101800.31
2017-11-15T08:48:45.907Z,101804.05
2017-11-15T08:51:22.867Z,101799.86
2017-11-15T08:53:54.506Z,101807.64
2017-11-15T08:56:26.703Z,101806.52
2017-11-15T08:59:00.105Z,101809.97
2017-11-15T09:01:37.672Z,101808.47
2017-11-15T09:04:09.997Z,101809.19
2017-11-15T09:06:41.926Z,101799.93
2017-11-15T09:09:16.684Z,101804.72
2017-11-15T09:11:51.190Z,101809.80
2017-11-15T09:14:22.822Z,101811.91
2017-11-15T09:19:45.225Z,101814.50
2017-11-15T09:22:20.582Z,101814.84
2017-11-15T09:24:52.299Z,101814.38
2017-11-15T09:27:24.005Z,101816.15
2017-11-15T09:29:55.359Z,101820.78
2017-11-15T09:32:26.688Z,101816.15
2017-11-15T09:34:58.866Z,101818.14
2017-11-15T09:37:30.182Z,101817.76
2017-11-15T09:40:03.658Z,101807.40
2017-11-15T09:42:35.594Z,101805.80
2017-11-15T09:45:09.739Z,101808.19
2017-11-15T09:47:42.142Z,101805.50
2017-11-15T09:50:13.651Z,101806.25
2017-11-15T09:52:49.000Z,101810.73
2017-11-15T09:55:20.662Z,101807.84
2017-11-15T09:57:52.021Z,101819.16
2017-11-15T10:00:23.635Z,101814.27
2017-11-15T10:02:54.982Z,101806.87
2017-11-15T10:05:26.936Z,101806.80
2017-11-15T10:07:58.262Z,101807.07
2017-11-15T10:10:29.830Z,101809.22
2017-11-15T10:13:03.399Z,101799.61
2017-11-15T10:15:35.282Z,101800.88
2017-11-15T10:18:12.315Z,101809.45
2017-11-15T10:20:44.047Z,101807.03
2017-11-15T10:23:15.593Z,101804.66
2017-11-15T10:25:47.642Z,101801.52
2017-11-15T10:28:23.165Z,101796.72
2017-11-15T10:30:54.483Z,101792.47
2017-11-15T10:33:26.230Z,101784.31
2017-11-15T10:35:57.597Z,101785.53
2017-11-15T10:38:29.442Z,101775.16
2017-11-15T10:41:03.778Z,101777.77
2017-11-15T10:43:41.732Z,101774.73
2017-11-15T10:46:15.780Z,101765.73
2017-11-15T10:48:47.320Z,101769.85
2017-11-15T10:51:18.657Z,101763.59
2017-11-15T10:53:50.353Z,101748.39
2017-11-15T10:56:22.059Z,101732.14
2017-11-15T10:58:53.481Z,101734.20
2017-11-15T11:01:25.693Z,101735.90
2017-11-15T11:04:05.283Z,101738.95
2017-11-15T11:06:44.540Z,101740.59
2017-11-15T11:09:15.974Z,101739.46
2017-11-15T11:11:52.461Z,101727.77
2017-11-15T11:14:24.162Z,101712.09
2017-11-15T11:16:55.644Z,101705.85
2017-11-15T11:19:27.313Z,101709.17
2017-11-15T11:21:58.954Z,101700.44
2017-11-15T11:24:31.034Z,101694.70
2017-11-15T11:27:08.764Z,101693.41
2017-11-15T11:29:47.615Z,101694.34
2017-11-15T11:32:18.921Z,101678.95
2017-11-15T11:34:50.963Z,101671.97
2017-11-15T11:37:22.366Z,101661.64
2017-11-15T11:39:54.317Z,101658.44
2017-11-15T11:42:26.139Z,101656.77
2017-11-15T11:44:58.549Z,101662.00
2017-11-15T11:47:30.639Z,101654.26
2017-11-15T11:50:05.436Z,101654.70
2017-11-15T11:52:38.268Z,101653.85
2017-11-15T11:55:12.702Z,101647.34
2017-11-15T11:57:44.294Z,101639.30
2017-11-15T12:00:18.939Z,101640.22
2017-11-15T12:02:50.236Z,101629.89
2017-11-15T12:05:22.465Z,101621.48
2017-11-15T12:07:57.188Z,101621.71
2017-11-15T12:10:28.829Z,101616.94
2017-11-15T12:13:03.614Z,101617.09
2017-11-15T12:15:39.868Z,101610.41
2017-11-15T12:18:11.556Z,101603.84
2017-11-15T12:20:43.393Z,101602.98
2017-11-15T12:23:14.742Z,101602.27
2017-11-15T12:25:46.732Z,101603.24
2017-11-15T12:28:18.449Z,101598.11
2017-11-15T12:30:51.065Z,101596.81
2017-11-15T12:33:22.441Z,101595.13
2017-11-15T12:35:56.550Z,101584.23
2017-11-15T12:38:33.180Z,101584.41
2017-11-15T12:41:17.251Z,101583.13
2017-11-15T12:46:54.417Z,101573.69
2017-11-15T12:49:32.297Z,101570.55
2017-11-15T12:53:04.115Z,101567.80
2017-11-15T12:55:38.602Z,101562.21
2017-11-15T12:58:10.204Z,101569.74
2017-11-15T13:00:42.102Z,101565.31
2017-11-15T13:03:13.429Z,101565.48
2017-11-15T13:05:50.897Z,101566.44
2017-11-15T13:08:23.709Z,101583.30
2017-11-15T13:10:55.203Z,101587.59
2017-11-15T13:13:26.879Z,101600.65
2017-11-15T13:15:59.026Z,101597.27
2017-11-15T13:18:30.352Z,101596.14
2017-11-15T13:21:05.184Z,101601.92
2017-11-15T13:23:36.838Z,101606.49
2017-11-15T13:26:08.248Z,101600.56
2017-11-15T13:28:39.632Z,101591.27
2017-11-15T13:31:11.665Z,101596.23
2017-11-15T13:33:42.983Z,101588.50
2017-11-15T13:36:14.503Z,101597.60
2017-11-15T13:38:46.081Z,101597.30
2017-11-15T13:41:17.643Z,101595.46
2017-11-15T13:43:53.224Z,101596.06
2017-11-15T13:46:24.983Z,101596.67
2017-11-15T13:48:59.482Z,101602.95
2017-11-15T13:51:31.059Z,101597.72
2017-11-15T13:54:09.961Z,101594.22
2017-11-15T13:56:41.598Z,101593.78
2017-11-15T13:59:12.893Z,101594.30
2017-11-15T14:01:53.036Z,101593.47
2017-11-15T14:04:31.375Z,101587.58
2017-11-15T14:07:19.636Z,101595.29
2017-11-15T14:09:53.748Z,101602.46
2017-11-15T14:12:25.673Z,101603.02
2017-11-15T14:15:00.550Z,101606.83
2017-11-15T14:17:33.157Z,101609.03
2017-11-15T14:20:08.616Z,101607.70
2017-11-15T14:22:40.304Z,101609.14
2017-11-15T14:25:14.228Z,101608.77
2017-11-15T14:27:47.354Z,101612.73
2017-11-15T14:35:47.309Z,101607.80
2017-11-15T14:38:18.944Z,101606.88
2017-11-15T14:40:52.276Z,101608.41
2017-11-15T14:43:24.465Z,101606.98
2017-11-15T14:45:56.234Z,101611.25
2017-11-15T14:48:28.907Z,101604.91
2017-11-15T14:51:02.631Z,101613.10
2017-11-15T14:53:39.006Z,101607.95
2017-11-15T14:56:17.969Z,101606.56
2017-11-15T14:58:58.961Z,101608.03
2017-11-15T15:01:30.299Z,101613.97
2017-11-15T15:04:05.473Z,101614.78
2017-11-15T15:06:36.868Z,101612.46
2017-11-15T15:09:10.742Z,101617.99
2017-11-15T15:11:44.192Z,101619.25
2017-11-15T15:17:16.268Z,101623.86
2017-11-15T15:19:51.358Z,101620.69
2017-11-15T15:22:28.270Z,101618.62
2017-11-15T15:25:04.167Z,101623.02
2017-11-15T15:27:39.063Z,101623.75
2017-11-15T15:30:21.433Z,101630.04
2017-11-15T15:32:54.904Z,101630.23
2017-11-15T15:35:26.612Z,101626.15
2017-11-15T15:37:58.697Z,101627.73
2017-11-15T15:43:30.096Z,101623.58
2017-11-15T15:46:05.270Z,101619.36
2017-11-15T15:48:38.974Z,101613.03
2017-11-15T15:51:11.604Z,101614.38
2017-11-15T15:53:43.728Z,101614.02
2017-11-15T15:59:32.757Z,101621.54
2017-11-15T16:02:10.473Z,101628.66
2017-11-15T16:04:44.611Z,101627.91
2017-11-15T16:07:17.352Z,101635.45
2017-11-15T16:09:50.483Z,101633.78
2017-11-15T16:12:22.172Z,101633.42
2017-11-15T16:14:53.799Z,101634.30
2017-11-15T16:17:25.463Z,101629.98
2017-11-15T16:26:06.273Z,101626.94
2017-11-15T16:28:38.976Z,101631.75
2017-11-15T16:31:13.524Z,101633.09
2017-11-15T16:33:45.570Z,101627.01
2017-11-15T16:36:20.826Z,101629.66
2017-11-15T16:38:52.336Z,101637.52
2017-11-15T16:41:23.970Z,101648.86
2017-11-15T16:43:55.786Z,101651.03
2017-11-15T16:46:28.763Z,101651.44
2017-11-15T16:49:02.063Z,101646.25
2017-11-15T16:51:35.370Z,101649.30
2017-11-15T16:54:09.828Z,101646.69
2017-11-15T16:56:42.479Z,101640.63
2017-11-15T16:59:14.476Z,101644.11
2017-11-15T17:01:45.837Z,101641.06
2017-11-15T17:04:18.674Z,101648.45
2017-11-15T17:06:50.136Z,101649.36
2017-11-15T17:09:21.997Z,101645.05
2017-11-15T17:11:55.206Z,101644.18
2017-11-15T17:14:26.853Z,101640.77
2017-11-15T17:16:59.601Z,101644.31
2017-11-15T17:19:31.115Z,101635.62
2017-11-15T17:22:06.426Z,101641.27
2017-11-15T17:24:38.139Z,101639.50
2017-11-15T17:27:09.539Z,101635.62
2017-11-15T17:29:40.880Z,101642.20
2017-11-15T17:32:12.835Z,101641.80
2017-11-15T17:34:44.259Z,101640.50
2017-11-15T17:37:16.532Z,101642.67
2017-11-15T17:39:48.425Z,101637.45
2017-11-15T17:42:22.355Z,101633.58
2017-11-15T17:44:53.737Z,101644.45
2017-11-15T17:47:26.810Z,101643.55
2017-11-15T17:49:58.316Z,101637.05
2017-11-15T17:52:31.437Z,101633.64
2017-11-15T17:55:04.831Z,101642.77
2017-11-15T17:57:37.391Z,101637.13
2017-11-15T18:00:10.528Z,101636.25
2017-11-15T18:02:41.908Z,101634.95
2017-11-15T18:05:14.197Z,101637.59
2017-11-15T18:07:47.314Z,101641.50
2017-11-15T18:10:18.730Z,101641.94
2017-11-15T18:12:50.580Z,101647.16
2017-11-15T18:15:22.003Z,101647.22
2017-11-15T18:17:54.479Z,101641.16
2017-11-15T18:20:25.847Z,101646.38
2017-11-15T18:22:57.275Z,101642.09
2017-11-15T18:25:29.308Z,101650.42
2017-11-15T18:28:03.173Z,101649.58
2017-11-15T18:30:34.564Z,101643.52
2017-11-15T18:33:07.747Z,101638.31
2017-11-15T18:35:39.499Z,101637.94
2017-11-15T18:38:11.805Z,101635.36
2017-11-15T18:40:43.737Z,101633.25
2017-11-15T18:43:15.163Z,101628.93
2017-11-15T18:45:48.262Z,101631.97
2017-11-15T18:48:20.956Z,101629.86
2017-11-15T18:50:52.853Z,101636.78
2017-11-15T18:53:25.863Z,101636.81
2017-11-15T18:55:57.238Z,101635.16
2017-11-15T18:58:29.380Z,101636.52
2017-11-15T19:01:01.199Z,101633.92
2017-11-15T19:03:32.678Z,101627.83
2017-11-15T19:06:06.906Z,101626.53
2017-11-15T19:08:38.880Z,101625.28
2017-11-15T19:11:10.655Z,101632.70
2017-11-15T19:13:42.014Z,101633.16
2017-11-15T19:16:15.842Z,101637.09
2017-11-15T19:18:47.963Z,101634.48
2017-11-15T19:21:19.861Z,101638.45
2017-11-15T19:23:55.114Z,101635.88
2017-11-15T19:26:28.228Z,101631.09
2017-11-15T19:29:03.403Z,101631.97
2017-11-15T19:31:35.084Z,101632.86
2017-11-15T19:34:08.735Z,101633.35
2017-11-15T19:36:40.922Z,101633.41
2017-11-15T19:39:14.114Z,101633.89
2017-11-15T19:41:45.791Z,101631.73
2017-11-15T19:44:17.931Z,101632.67
2017-11-15T19:46:49.336Z,101630.95
2017-11-15T19:49:21.858Z,101628.38
2017-11-15T19:51:56.092Z,101639.69
2017-11-15T19:54:29.111Z,101644.48
2017-11-15T19:57:00.550Z,101639.72
2017-11-15T19:59:33.418Z,101644.92
2017-11-15T20:02:09.282Z,101646.22
2017-11-15T20:04:41.046Z,101645.36
2017-11-15T20:07:12.460Z,101644.05
2017-11-15T20:09:45.721Z,101643.62
2017-11-15T20:12:19.554Z,101641.03
2017-11-15T20:14:50.989Z,101641.52
2017-11-15T20:17:22.394Z,101638.48
2017-11-15T20:19:55.001Z,101635.03
2017-11-15T20:22:26.576Z,101635.06
2017-11-15T20:24:59.373Z,101631.13
2017-11-15T20:27:32.540Z,101627.27
2017-11-15T20:30:12.179Z,101628.59
2017-11-15T20:32:44.147Z,101629.92
2017-11-15T20:35:16.629Z,101625.14
2017-11-15T20:37:48.375Z,101623.43
2017-11-15T20:40:21.267Z,101626.45
2017-11-15T20:42:53.004Z,101621.73
2017-11-15T20:45:24.508Z,101626.08
2017-11-15T20:47:55.894Z,101620.01
2017-11-15T20:50:28.626Z,101624.81
2017-11-15T20:53:00.050Z,101616.15
2017-11-15T20:55:34.308Z,101618.39
2017-11-15T20:58:08.844Z,101621.92
2017-11-15T21:00:41.773Z,101627.58
2017-11-15T21:03:13.171Z,101625.84
2017-11-15T21:05:44.600Z,101622.81
2017-11-15T21:08:20.484Z,101616.30
2017-11-15T21:10:52.875Z,101620.69
2017-11-15T21:15:57.405Z,101622.45
2017-11-15T21:18:29.499Z,101627.64
2017-11-15T21:21:09.958Z,101625.10
2017-11-15T21:23:41.486Z,101625.09
2017-11-15T21:26:16.162Z,101620.73
2017-11-15T21:28:49.243Z,101612.10
2017-11-15T21:31:24.967Z,101615.16
2017-11-15T21:33:56.584Z,101610.84
2017-11-15T21:36:31.977Z,101619.08
2017-11-15T21:39:09.543Z,101621.66
2017-11-15T21:41:41.520Z,101617.78
2017-11-15T21:44:17.850Z,101611.30
2017-11-15T21:46:51.841Z,101610.42
2017-11-15T21:49:39.321Z,101612.63
2017-11-15T21:52:11.531Z,101614.83
2017-11-15T21:54:43.558Z,101617.86
2017-11-15T21:57:15.272Z,101616.13
2017-11-15T21:59:46.991Z,101609.61
2017-11-15T22:02:19.609Z,101614.78
2017-11-15T22:04:50.972Z,101611.71
2017-11-15T22:07:24.555Z,101618.12
2017-11-15T22:09:55.948Z,101614.19
2017-11-15T22:12:31.017Z,101615.00
2017-11-15T22:15:03.430Z,101612.84
2017-11-15T22:17:36.635Z,101614.56
2017-11-15T22:20:08.095Z,101605.05
2017-11-15T22:22:39.515Z,101608.97
2017-11-15T22:25:10.834Z,101605.97
2017-11-15T22:27:42.180Z,101610.78
2017-11-15T22:30:16.325Z,101606.92
2017-11-15T22:32:50.067Z,101607.38
2017-11-15T22:35:22.708Z,101598.75
2017-11-15T22:37:59.586Z,101594.45
2017-11-15T22:40:32.201Z,101587.97
2017-11-15T22:43:08.633Z,101591.48
2017-11-15T22:45:40.011Z,101587.56
2017-11-15T22:48:12.236Z,101583.30
2017-11-15T22:50:43.575Z,101581.63
2017-11-15T22:53:15.218Z,101586.48
2017-11-15T22:58:55.499Z,101588.70
2017-11-15T23:01:30.143Z,101593.52
2017-11-15T23:04:03.817Z,101589.66
2017-11-15T23:06:36.411Z,101590.52
2017-11-15T23:09:08.694Z,101583.57
2017-11-15T23:11:41.792Z,101580.55
2017-11-15T23:14:26.123Z,101578.36
2017-11-15T23:17:25.058Z,101580.10
2017-11-15T23:20:07.610Z,101579.23
2017-11-15T23:22:40.050Z,101584.89
2017-11-15T23:28:16.765Z,101589.73
2017-11-15T23:30:50.336Z,101585.89
2017-11-15T23:33:22.048Z,101584.19
2017-11-15T23:35:53.643Z,101587.69
2017-11-15T23:38:25.140Z,101584.25
2017-11-15T23:40:56.512Z,101586.88
2017-11-15T23:43:28.517Z,101587.73
2017-11-15T23:45:59.924Z,101579.53
2017-11-15T23:48:32.038Z,101578.27
2017-11-15T23:51:07.027Z,101573.92
2017-11-15T23:53:39.519Z,101573.06
2017-11-15T23:56:15.240Z,101574.34
2017-11-15T23:58:47.490Z,101566.56
